createdAt,value
2019-02-20T00:02:39.263Z,100.00
2019-02-20T00:05:27.532Z,100.00
2019-02-20T00:08:15.258Z,100.00
2019-02-20T00:11:03.259Z,100.00
2019-02-20T00:13:51.432Z,100.00
2019-02-20T00:16:39.711Z,100.00
2019-02-20T00:19:27.947Z,100.00
2019-02-20T00:22:16.341Z,100.00
2019-02-20T00:25:05.518Z,100.00
2019-02-20T00:27:53.514Z,100.00
2019-02-20T00:30:41.335Z,100.00
2019-02-20T00:33:29.417Z,99.50
2019-02-20T00:36:17.731Z,100.00
2019-02-20T00:39:07.892Z,100.00
2019-02-20T00:41:56.384Z,100.00
2019-02-20T00:45:03.323Z,100.00
2019-02-20T00:48:17.495Z,100.00
2019-02-20T00:51:24.539Z,100.00
2019-02-20T00:54:12.139Z,100.00
2019-02-20T00:57:00.314Z,100.00
2019-02-20T00:59:48.052Z,100.00
2019-02-20T01:02:36.435Z,100.00
2019-02-20T01:05:24.861Z,100.00
2019-02-20T01:08:13.104Z,100.00
2019-02-20T01:11:01.543Z,100.00
2019-02-20T01:13:49.501Z,100.00
2019-02-20T01:16:37.591Z,100.00
2019-02-20T01:19:25.717Z,100.00
2019-02-20T01:22:14.123Z,99.90
2019-02-20T01:25:02.097Z,99.41
2019-02-20T01:27:50.790Z,99.83
2019-02-20T01:30:38.695Z,100.00
2019-02-20T01:33:26.789Z,100.00
2019-02-20T01:36:15.132Z,100.00
2019-02-20T01:39:04.682Z,100.00
2019-02-20T01:41:52.308Z,100.00
2019-02-20T01:44:40.683Z,100.00
2019-02-20T01:47:28.999Z,100.00
2019-02-20T01:50:20.540Z,100.00
2019-02-20T01:53:10.620Z,100.00
2019-02-20T01:55:58.091Z,100.00
2019-02-20T01:58:46.563Z,100.00
2019-02-20T02:01:34.481Z,100.00
2019-02-20T02:04:22.473Z,100.00
2019-02-20T02:07:10.906Z,100.00
2019-02-20T02:09:58.895Z,100.00
2019-02-20T02:12:47.294Z,100.00
2019-02-20T02:15:35.326Z,100.00
2019-02-20T02:18:23.067Z,100.00
2019-02-20T02:21:11.445Z,100.00
2019-02-20T02:23:59.315Z,100.00
2019-02-20T02:26:46.995Z,100.00
2019-02-20T02:29:35.043Z,100.00
2019-02-20T02:32:23.451Z,100.00
2019-02-20T02:35:11.706Z,100.00
2019-02-20T02:37:59.700Z,100.00
2019-02-20T02:40:47.892Z,100.00
2019-02-20T02:43:35.503Z,100.00
2019-02-20T02:46:23.694Z,100.00
2019-02-20T02:49:11.777Z,100.00
2019-02-20T02:51:59.863Z,100.00
2019-02-20T02:54:48.273Z,100.00
2019-02-20T02:57:36.418Z,100.00
2019-02-20T03:00:24.892Z,100.00
2019-02-20T03:03:12.981Z,100.00
2019-02-20T03:06:01.338Z,100.00
2019-02-20T03:08:49.797Z,100.00
2019-02-20T03:11:37.384Z,100.00
2019-02-20T03:14:25.586Z,100.00
2019-02-20T03:17:13.287Z,100.00
2019-02-20T03:20:01.718Z,100.00
2019-02-20T03:22:49.891Z,100.00
2019-02-20T03:25:37.992Z,100.00
2019-02-20T03:28:26.320Z,99.57
2019-02-20T03:31:14.692Z,100.00
2019-02-20T03:34:03.055Z,100.00
2019-02-20T03:36:50.774Z,100.00
2019-02-20T03:39:38.708Z,100.00
2019-02-20T03:42:26.962Z,100.00
2019-02-20T03:45:15.386Z,100.00
2019-02-20T03:48:03.887Z,100.00
2019-02-20T03:50:52.016Z,100.00
2019-02-20T03:53:50.870Z,100.00
2019-02-20T03:56:29.897Z,100.00
2019-02-20T03:59:17.738Z,100.00
2019-02-20T04:02:05.877Z,100.00
2019-02-20T04:04:54.149Z,100.00
2019-02-20T04:07:41.814Z,100.00
2019-02-20T04:10:30.332Z,100.00
2019-02-20T04:13:18.742Z,100.00
2019-02-20T04:16:06.959Z,100.00
2019-02-20T04:18:54.684Z,100.00
2019-02-20T04:21:42.779Z,100.00
2019-02-20T04:24:30.467Z,100.00
2019-02-20T04:27:18.915Z,100.00
2019-02-20T04:30:07.528Z,100.00
2019-02-20T04:32:55.980Z,100.00
2019-02-20T04:35:44.616Z,100.00
2019-02-20T04:38:32.283Z,100.00
2019-02-20T04:41:20.637Z,100.00
2019-02-20T04:44:09.223Z,100.00
2019-02-20T04:46:57.788Z,100.00
2019-02-20T04:49:45.544Z,100.00
2019-02-20T04:52:33.408Z,99.61
2019-02-20T04:55:21.912Z,100.00
2019-02-20T04:58:17.265Z,100.00
2019-02-20T05:01:05.511Z,100.00
2019-02-20T05:03:54.039Z,100.00
2019-02-20T05:06:42.395Z,100.00
2019-02-20T05:09:30.408Z,100.00
2019-02-20T05:12:19.138Z,100.00
2019-02-20T05:15:07.572Z,100.00
2019-02-20T05:17:56.134Z,100.00
2019-02-20T05:20:44.529Z,100.00
2019-02-20T05:23:32.630Z,100.00
2019-02-20T05:26:20.307Z,100.00
2019-02-20T05:29:08.199Z,100.00
2019-02-20T05:31:56.520Z,100.00
2019-02-20T05:34:44.214Z,100.00
2019-02-20T05:37:32.560Z,100.00
2019-02-20T05:40:21.162Z,100.00
2019-02-20T05:43:09.168Z,100.00
2019-02-20T05:45:57.367Z,100.00
2019-02-20T05:48:45.402Z,100.00
2019-02-20T05:51:35.798Z,100.00
2019-02-20T05:54:33.867Z,100.00
2019-02-20T05:57:13.168Z,99.49
2019-02-20T06:00:01.130Z,97.63
2019-02-20T06:02:49.130Z,95.98
2019-02-20T06:05:37.519Z,95.83
2019-02-20T06:08:25.771Z,95.45
2019-02-20T06:11:15.455Z,95.63
2019-02-20T06:14:04.147Z,94.20
2019-02-20T06:16:52.503Z,93.33
2019-02-20T06:19:40.922Z,93.69
2019-02-20T06:22:29.434Z,94.55
2019-02-20T06:25:17.132Z,93.78
2019-02-20T06:28:05.174Z,94.21
2019-02-20T06:30:53.359Z,92.73
2019-02-20T06:33:41.804Z,90.82
2019-02-20T06:36:30.174Z,88.75
2019-02-20T06:39:18.514Z,85.96
2019-02-20T06:42:06.922Z,83.83
2019-02-20T06:44:55.425Z,87.03
2019-02-20T06:47:43.858Z,87.03
2019-02-20T06:50:31.589Z,88.14
2019-02-20T06:53:19.697Z,89.61
2019-02-20T06:56:10.165Z,91.58
2019-02-20T06:58:58.684Z,93.52
2019-02-20T07:01:47.011Z,94.73
2019-02-20T07:04:35.494Z,94.55
2019-02-20T07:07:44.748Z,93.80
2019-02-20T07:10:50.651Z,93.41
2019-02-20T07:13:53.451Z,92.83
2019-02-20T07:17:05.034Z,91.56
2019-02-20T07:20:30.418Z,89.42
2019-02-20T07:23:31.644Z,86.33
2019-02-20T07:26:42.164Z,83.80
2019-02-20T07:29:45.191Z,83.01
2019-02-20T07:32:33.707Z,83.02
2019-02-20T07:35:22.104Z,84.67
2019-02-20T07:38:09.808Z,84.00
2019-02-20T07:40:58.264Z,83.51
2019-02-20T07:43:46.450Z,83.13
2019-02-20T07:46:35.131Z,83.21
2019-02-20T07:49:22.998Z,82.07
2019-02-20T07:52:11.431Z,80.77
2019-02-20T07:54:59.526Z,82.13
2019-02-20T07:57:47.734Z,82.92
2019-02-20T08:00:35.897Z,82.02
2019-02-20T08:03:24.257Z,82.55
2019-02-20T08:06:12.857Z,83.08
2019-02-20T08:09:01.186Z,81.39
2019-02-20T08:11:49.556Z,79.38
2019-02-20T08:14:38.024Z,78.52
2019-02-20T08:17:25.670Z,76.62
2019-02-20T08:20:14.182Z,74.53
2019-02-20T08:23:02.222Z,73.91
2019-02-20T08:25:50.292Z,73.55
2019-02-20T08:28:38.684Z,72.55
2019-02-20T08:31:27.213Z,72.43
2019-02-20T08:34:15.024Z,71.91
2019-02-20T08:37:03.482Z,72.32
2019-02-20T08:39:51.843Z,71.70
2019-02-20T08:42:40.759Z,69.62
2019-02-20T08:45:29.062Z,69.50
2019-02-20T08:48:18.460Z,69.20
2019-02-20T08:51:06.818Z,68.65
2019-02-20T08:53:54.929Z,68.84
2019-02-20T08:56:43.340Z,68.29
2019-02-20T08:59:31.578Z,68.26
2019-02-20T09:02:19.548Z,67.25
2019-02-20T09:05:07.927Z,66.73
2019-02-20T09:07:56.188Z,66.21
2019-02-20T09:10:44.097Z,65.59
2019-02-20T09:13:32.452Z,63.94
2019-02-20T09:16:20.516Z,63.67
2019-02-20T09:19:08.203Z,63.74
2019-02-20T09:21:56.758Z,63.04
2019-02-20T09:24:45.128Z,63.17
2019-02-20T09:27:33.590Z,62.27
2019-02-20T09:30:28.253Z,62.28
2019-02-20T09:33:11.304Z,62.02
2019-02-20T09:35:59.944Z,60.48
2019-02-20T09:38:48.368Z,59.16
2019-02-20T09:41:36.044Z,58.49
2019-02-20T09:44:24.504Z,58.58
2019-02-20T09:47:11.975Z,58.22
2019-02-20T09:49:59.779Z,56.52
2019-02-20T09:52:52.249Z,57.81
2019-02-20T09:55:36.891Z,57.18
2019-02-20T09:58:27.873Z,55.05
2019-02-20T10:01:16.430Z,55.32
2019-02-20T10:04:04.549Z,54.69
2019-02-20T10:06:53.685Z,55.46
2019-02-20T10:09:42.076Z,54.14
2019-02-20T10:12:30.603Z,52.38
2019-02-20T10:15:19.182Z,52.76
2019-02-20T10:18:07.727Z,51.53
2019-02-20T10:20:55.674Z,51.16
2019-02-20T10:23:45.197Z,49.00
2019-02-20T10:26:33.426Z,48.65
2019-02-20T10:29:22.008Z,46.19
2019-02-20T10:32:10.014Z,46.13
2019-02-20T10:34:58.141Z,45.98
2019-02-20T10:37:45.807Z,43.81
2019-02-20T10:40:34.143Z,43.67
2019-02-20T10:43:22.432Z,42.73
2019-02-20T10:46:10.838Z,43.18
2019-02-20T10:48:58.465Z,41.83
2019-02-20T10:51:47.092Z,39.63
2019-02-20T10:54:35.478Z,39.96
2019-02-20T10:57:23.583Z,39.88
2019-02-20T11:00:23.575Z,38.82
2019-02-20T11:03:06.444Z,38.75
2019-02-20T11:05:54.336Z,38.91
2019-02-20T11:08:42.794Z,39.20
2019-02-20T11:11:30.735Z,40.74
2019-02-20T11:14:18.864Z,39.26
2019-02-20T11:17:07.263Z,39.13
2019-02-20T11:19:55.791Z,39.12
2019-02-20T11:22:44.007Z,40.78
2019-02-20T11:25:32.442Z,38.92
2019-02-20T11:28:26.852Z,39.85
2019-02-20T11:31:09.591Z,38.52
2019-02-20T11:33:57.936Z,39.60
2019-02-20T11:36:46.303Z,40.23
2019-02-20T11:39:37.648Z,38.81
2019-02-20T11:42:25.483Z,38.85
2019-02-20T11:45:13.491Z,39.01
2019-02-20T11:48:01.598Z,38.73
2019-02-20T11:50:49.580Z,39.43
2019-02-20T11:53:38.732Z,38.43
2019-02-20T11:56:26.988Z,37.76
2019-02-20T11:59:15.119Z,37.41
2019-02-20T12:02:02.942Z,38.51
2019-02-20T12:04:51.348Z,36.56
2019-02-20T12:07:39.066Z,35.90
2019-02-20T12:10:27.635Z,35.83
2019-02-20T12:13:15.442Z,35.72
2019-02-20T12:16:03.896Z,35.92
2019-02-20T12:18:52.220Z,35.12
2019-02-20T12:21:40.645Z,34.70
2019-02-20T12:24:29.094Z,34.48
2019-02-20T12:27:17.491Z,35.23
2019-02-20T12:30:06.853Z,34.83
2019-02-20T12:32:54.966Z,35.24
2019-02-20T12:35:43.324Z,35.12
2019-02-20T12:38:31.924Z,34.73
2019-02-20T12:41:19.555Z,35.02
2019-02-20T12:44:07.319Z,35.02
2019-02-20T12:46:55.683Z,35.16
2019-02-20T12:49:43.603Z,34.17
2019-02-20T12:52:31.291Z,34.55
2019-02-20T12:55:19.656Z,33.37
2019-02-20T12:58:08.020Z,34.11
2019-02-20T13:00:56.459Z,32.54
2019-02-20T13:03:44.856Z,32.90
2019-02-20T13:06:33.300Z,32.87
2019-02-20T13:09:05.004Z,33.32
2019-02-20T13:11:34.706Z,32.96
2019-02-20T13:14:04.488Z,33.43
2019-02-20T13:16:34.232Z,32.75
2019-02-20T13:19:03.977Z,32.68
2019-02-20T13:21:33.808Z,33.46
2019-02-20T13:24:03.556Z,32.90
2019-02-20T13:26:34.736Z,33.73
2019-02-20T13:29:04.623Z,32.33
2019-02-20T13:31:34.372Z,32.77
2019-02-20T13:34:04.114Z,32.72
2019-02-20T13:36:33.895Z,32.06
2019-02-20T13:39:04.812Z,30.59
2019-02-20T13:41:34.549Z,30.69
2019-02-20T13:44:04.795Z,30.14
2019-02-20T13:46:34.532Z,30.35
2019-02-20T13:49:04.273Z,29.29
2019-02-20T13:51:34.351Z,29.25
2019-02-20T13:54:04.091Z,29.89
2019-02-20T13:56:34.752Z,29.88
2019-02-20T13:59:04.539Z,29.87
2019-02-20T14:01:34.280Z,27.35
2019-02-20T14:04:04.080Z,27.61
2019-02-20T14:06:35.646Z,27.48
2019-02-20T14:09:07.145Z,27.48
2019-02-20T14:11:38.019Z,27.99
2019-02-20T14:14:09.149Z,27.64
2019-02-20T14:16:40.168Z,28.58
2019-02-20T14:19:11.039Z,27.58
2019-02-20T14:21:41.995Z,27.37
2019-02-20T14:24:12.845Z,28.26
2019-02-20T14:26:44.000Z,29.13
2019-02-20T14:29:13.999Z,30.51
2019-02-20T14:31:44.975Z,31.69
2019-02-20T14:34:16.363Z,32.75
2019-02-20T14:36:46.287Z,32.15
2019-02-20T14:39:16.049Z,30.07
2019-02-20T14:41:45.789Z,29.84
2019-02-20T14:44:15.610Z,30.00
2019-02-20T14:46:45.347Z,29.05
2019-02-20T14:49:15.301Z,30.16
2019-02-20T14:51:45.079Z,31.81
2019-02-20T14:54:14.817Z,33.41
2019-02-20T14:56:45.860Z,34.45
2019-02-20T14:59:15.692Z,35.52
2019-02-20T15:01:45.440Z,36.42
2019-02-20T15:04:15.188Z,36.84
2019-02-20T15:06:45.002Z,37.31
2019-02-20T15:09:15.718Z,37.67
2019-02-20T15:11:45.487Z,37.92
2019-02-20T15:14:16.224Z,38.01
2019-02-20T15:16:46.223Z,37.54
2019-02-20T15:19:15.952Z,37.66
2019-02-20T15:21:45.819Z,38.44
2019-02-20T15:24:15.632Z,38.39
2019-02-20T15:26:45.378Z,38.59
2019-02-20T15:29:15.179Z,38.43
2019-02-20T15:31:45.009Z,39.02
2019-02-20T15:34:14.751Z,39.44
2019-02-20T15:36:44.568Z,38.87
2019-02-20T15:39:14.375Z,39.56
2019-02-20T15:41:44.628Z,40.52
2019-02-20T15:44:14.578Z,40.92
2019-02-20T15:46:44.659Z,41.30
2019-02-20T15:49:14.424Z,41.68
2019-02-20T15:51:44.317Z,41.50
2019-02-20T15:54:14.076Z,41.00
2019-02-20T15:56:43.841Z,40.57
2019-02-20T15:59:13.813Z,40.84
2019-02-20T16:01:43.599Z,41.38
2019-02-20T16:04:13.347Z,40.20
2019-02-20T16:06:44.418Z,40.20
2019-02-20T16:09:14.599Z,40.18
2019-02-20T16:11:44.402Z,40.80
2019-02-20T16:14:14.207Z,41.80
2019-02-20T16:16:44.638Z,41.84
2019-02-20T16:19:14.428Z,42.61
2019-02-20T16:21:44.182Z,41.67
2019-02-20T16:24:13.927Z,42.08
2019-02-20T16:26:43.819Z,43.02
2019-02-20T16:29:13.694Z,42.94
2019-02-20T16:31:44.179Z,43.20
2019-02-20T16:34:13.965Z,44.17
2019-02-20T16:36:43.741Z,44.05
2019-02-20T16:39:13.489Z,42.48
2019-02-20T16:41:43.608Z,43.49
2019-02-20T16:44:13.595Z,44.00
2019-02-20T16:46:43.968Z,44.22
2019-02-20T16:49:13.801Z,45.10
2019-02-20T16:51:43.602Z,46.13
2019-02-20T16:54:13.340Z,47.06
2019-02-20T16:56:43.426Z,46.97
2019-02-20T16:59:14.235Z,47.18
2019-02-20T17:01:44.701Z,47.45
2019-02-20T17:04:14.531Z,46.84
2019-02-20T17:06:44.370Z,46.80
2019-02-20T17:09:14.119Z,45.08
2019-02-20T17:11:44.005Z,45.58
2019-02-20T17:14:13.771Z,45.76
2019-02-20T17:16:44.109Z,46.72
2019-02-20T17:19:13.910Z,49.38
2019-02-20T17:21:43.733Z,50.55
2019-02-20T17:24:13.450Z,51.98
2019-02-20T17:26:43.689Z,52.18
2019-02-20T17:29:13.513Z,51.43
2019-02-20T17:31:43.384Z,53.24
2019-02-20T17:34:13.174Z,51.64
2019-02-20T17:36:43.139Z,52.31
2019-02-20T17:39:13.219Z,52.73
2019-02-20T17:41:43.159Z,52.56
2019-02-20T17:44:12.992Z,50.85
2019-02-20T17:46:42.757Z,51.00
2019-02-20T17:49:12.691Z,54.05
2019-02-20T17:51:42.537Z,52.42
2019-02-20T17:54:12.293Z,50.77
2019-02-20T17:56:42.146Z,51.89
2019-02-20T17:59:12.403Z,53.60
2019-02-20T18:01:42.346Z,52.79
2019-02-20T18:04:12.176Z,52.04
2019-02-20T18:06:42.134Z,52.31
2019-02-20T18:09:12.066Z,53.77
2019-02-20T18:11:41.909Z,54.55
2019-02-20T18:14:11.768Z,56.38
2019-02-20T18:16:41.511Z,57.26
2019-02-20T18:19:11.392Z,57.43
2019-02-20T18:21:41.133Z,58.28
2019-02-20T18:24:10.965Z,57.87
2019-02-20T18:26:40.786Z,60.05
2019-02-20T18:29:10.552Z,60.26
2019-02-20T18:31:40.415Z,60.79
2019-02-20T18:34:10.623Z,58.71
2019-02-20T18:36:40.478Z,59.37
2019-02-20T18:39:10.395Z,61.64
2019-02-20T18:41:40.432Z,59.77
2019-02-20T18:44:10.456Z,59.10
2019-02-20T18:46:40.316Z,58.68
2019-02-20T18:49:12.516Z,60.37
2019-02-20T18:51:44.711Z,63.40
2019-02-20T18:54:14.464Z,62.93
2019-02-20T18:56:44.278Z,62.21
2019-02-20T18:59:14.106Z,65.41
2019-02-20T19:01:44.134Z,63.13
2019-02-20T19:04:14.149Z,60.19
2019-02-20T19:06:44.070Z,63.78
2019-02-20T19:09:32.956Z,63.80
2019-02-20T19:12:33.559Z,64.01
2019-02-20T19:15:11.057Z,65.74
2019-02-20T19:18:01.290Z,66.93
2019-02-20T19:20:51.924Z,67.35
2019-02-20T19:23:56.271Z,67.70
2019-02-20T19:26:41.414Z,70.61
2019-02-20T19:29:29.203Z,67.96
2019-02-20T19:32:21.420Z,68.63
2019-02-20T19:34:56.611Z,63.44
2019-02-20T19:38:06.209Z,59.18
2019-02-20T19:40:49.021Z,59.94
2019-02-20T19:43:40.811Z,64.07
2019-02-20T19:46:29.911Z,65.70
2019-02-20T19:49:24.907Z,69.43
2019-02-20T19:52:12.569Z,72.70
2019-02-20T19:54:50.254Z,72.83
2019-02-20T19:57:51.539Z,71.99
2019-02-20T20:00:40.357Z,72.16
2019-02-20T20:03:19.261Z,71.44
2019-02-20T20:06:12.704Z,70.19
2019-02-20T20:08:46.871Z,73.47
2019-02-20T20:11:44.245Z,67.28
2019-02-20T20:14:31.263Z,67.78
2019-02-20T20:17:08.775Z,68.06
2019-02-20T20:20:00.720Z,67.97
2019-02-20T20:23:07.978Z,68.45
2019-02-20T20:25:41.509Z,69.76
2019-02-20T20:28:14.411Z,71.34
2019-02-20T20:31:03.718Z,74.51
2019-02-20T20:33:55.582Z,76.41
2019-02-20T20:36:56.596Z,76.93
2019-02-20T20:39:44.902Z,76.04
2019-02-20T20:42:35.931Z,76.94
2019-02-20T20:45:27.689Z,75.44
2019-02-20T20:48:25.653Z,73.99
2019-02-20T20:51:08.517Z,75.01
2019-02-20T20:53:57.362Z,76.00
2019-02-20T20:56:56.850Z,76.77
2019-02-20T20:59:57.954Z,77.21
2019-02-20T21:02:58.353Z,76.37
2019-02-20T21:06:01.485Z,76.24
2019-02-20T21:09:11.260Z,76.29
2019-02-20T21:12:21.162Z,78.37
2019-02-20T21:15:27.996Z,79.40
2019-02-20T21:18:35.515Z,79.45
2019-02-20T21:21:43.045Z,79.95
2019-02-20T21:24:48.500Z,78.10
2019-02-20T21:27:55.959Z,78.10
2019-02-20T21:31:06.433Z,77.27
2019-02-20T21:34:13.967Z,77.48
2019-02-20T21:37:08.058Z,78.72
2019-02-20T21:39:58.907Z,78.55
2019-02-20T21:43:05.564Z,77.70
2019-02-20T21:46:03.721Z,78.87
2019-02-20T21:48:56.306Z,76.87
2019-02-20T21:52:09.936Z,78.91
2019-02-20T21:55:15.771Z,79.83
2019-02-20T21:58:21.535Z,80.57
2019-02-20T22:01:13.880Z,81.13
2019-02-20T22:04:19.177Z,80.55
2019-02-20T22:07:35.820Z,79.75
2019-02-20T22:10:42.352Z,79.94
2019-02-20T22:13:55.785Z,79.86
2019-02-20T22:17:09.484Z,78.20
2019-02-20T22:20:18.950Z,78.94
2019-02-20T22:23:14.908Z,79.94
2019-02-20T22:26:13.001Z,79.63
2019-02-20T22:29:20.494Z,79.66
2019-02-20T22:32:38.802Z,80.09
2019-02-20T22:35:53.732Z,80.68
2019-02-20T22:38:48.390Z,80.29
2019-02-20T22:41:45.383Z,80.62
2019-02-20T22:44:50.699Z,80.02
2019-02-20T22:48:09.999Z,80.27
2019-02-20T22:51:19.716Z,80.68
2019-02-20T22:54:14.765Z,82.07
2019-02-20T22:57:19.524Z,84.35
2019-02-20T23:00:35.620Z,86.64
2019-02-20T23:03:33.892Z,87.63
2019-02-20T23:06:47.406Z,88.95
2019-02-20T23:10:03.664Z,86.86
2019-02-20T23:12:59.063Z,86.27
2019-02-20T23:15:46.776Z,85.46
2019-02-20T23:18:35.399Z,85.88
2019-02-20T23:21:23.804Z,85.47
2019-02-20T23:24:12.231Z,86.59
2019-02-20T23:27:00.573Z,90.89
2019-02-20T23:29:48.527Z,93.57
2019-02-20T23:32:37.042Z,94.25
2019-02-20T23:35:25.448Z,93.34
2019-02-20T23:38:13.826Z,92.02
2019-02-20T23:41:01.555Z,90.41
2019-02-20T23:43:50.081Z,88.61
2019-02-20T23:46:38.528Z,88.37
2019-02-20T23:49:26.877Z,88.49
2019-02-20T23:52:15.063Z,89.60
2019-02-20T23:55:03.255Z,89.48
2019-02-20T23:57:51.643Z,90.22
